sensor_id;sensor_type;location;lat;lon;timestamp;P1;durP1;ratioP1;P2;durP2;ratioP2
65599;SDS011;52272;-29.642;-50.764;2022-10-24T00:01:47;3.45;;;1.00;;
65599;SDS011;52272;-29.642;-50.764;2022-10-24T00:04:17;2.00;;;0.85;;
65599;SDS011;52272;-29.642;-50.764;2022-10-24T00:06:48;2.90;;;0.88;;
65599;SDS011;52272;-29.642;-50.764;2022-10-24T00:09:18;2.92;;;0.85;;
65599;SDS011;52272;-29.642;-50.764;2022-10-24T00:11:48;1.00;;;0.90;;
65599;SDS011;52272;-29.642;-50.764;2022-10-24T00:14:19;1.52;;;0.95;;
65599;SDS011;52272;-29.642;-50.764;2022-10-24T00:16:49;1.73;;;0.90;;
65599;SDS011;52272;-29.642;-50.764;2022-10-24T00:19:19;1.63;;;1.15;;
65599;SDS011;52272;-29.642;-50.764;2022-10-24T00:21:50;2.00;;;1.17;;
65599;SDS011;52272;-29.642;-50.764;2022-10-24T00:24:20;2.17;;;1.10;;
65599;SDS011;52272;-29.642;-50.764;2022-10-24T00:26:57;3.28;;;1.00;;
65599;SDS011;52272;-29.642;-50.764;2022-10-24T00:29:27;3.22;;;1.10;;
65599;SDS011;52272;-29.642;-50.764;2022-10-24T00:32:01;1.15;;;1.05;;
65599;SDS011;52272;-29.642;-50.764;2022-10-24T00:34:32;3.22;;;0.95;;
65599;SDS011;52272;-29.642;-50.764;2022-10-24T00:37:03;5.30;;;1.50;;
65599;SDS011;52272;-29.642;-50.764;2022-10-24T00:39:35;3.58;;;1.20;;
65599;SDS011;52272;-29.642;-50.764;2022-10-24T00:42:06;2.47;;;1.33;;
65599;SDS011;52272;-29.642;-50.764;2022-10-24T00:44:36;3.55;;;1.30;;
65599;SDS011;52272;-29.642;-50.764;2022-10-24T00:47:24;1.58;;;1.38;;
65599;SDS011;52272;-29.642;-50.764;2022-10-24T00:49:56;3.25;;;1.30;;
65599;SDS011;52272;-29.642;-50.764;2022-10-24T00:52:34;3.00;;;1.25;;
65599;SDS011;52272;-29.642;-50.764;2022-10-24T00:55:11;2.72;;;1.60;;
65599;SDS011;52272;-29.642;-50.764;2022-10-24T00:57:45;2.85;;;1.70;;
65599;SDS011;52272;-29.642;-50.764;2022-10-24T01:00:25;3.38;;;1.80;;
65599;SDS011;52272;-29.642;-50.764;2022-10-24T01:03:00;3.85;;;1.77;;
65599;SDS011;52272;-29.642;-50.764;2022-10-24T01:05:33;1.73;;;1.50;;
65599;SDS011;52272;-29.642;-50.764;2022-10-24T01:08:27;4.45;;;1.83;;
65599;SDS011;52272;-29.642;-50.764;2022-10-24T01:11:12;7.05;;;1.70;;
65599;SDS011;52272;-29.642;-50.764;2022-10-24T01:22:10;2.85;;;1.50;;
65599;SDS011;52272;-29.642;-50.764;2022-10-24T01:30:15;3.75;;;1.70;;
65599;SDS011;52272;-29.642;-50.764;2022-10-24T01:35:29;2.20;;;1.27;;
65599;SDS011;52272;-29.642;-50.764;2022-10-24T01:38:08;2.95;;;1.35;;
65599;SDS011;52272;-29.642;-50.764;2022-10-24T01:43:22;5.07;;;1.70;;
65599;SDS011;52272;-29.642;-50.764;2022-10-24T01:46:03;3.47;;;1.65;;
65599;SDS011;52272;-29.642;-50.764;2022-10-24T01:48:40;2.28;;;1.50;;
65599;SDS011;52272;-29.642;-50.764;2022-10-24T01:51:14;4.85;;;1.55;;
65599;SDS011;52272;-29.642;-50.764;2022-10-24T01:53:46;2.47;;;1.50;;
65599;SDS011;52272;-29.642;-50.764;2022-10-24T01:56:18;3.75;;;1.60;;
65599;SDS011;52272;-29.642;-50.764;2022-10-24T01:58:48;3.15;;;1.60;;
65599;SDS011;52272;-29.642;-50.764;2022-10-24T02:03:55;5.10;;;1.40;;
65599;SDS011;52272;-29.642;-50.764;2022-10-24T02:06:31;4.85;;;1.65;;
65599;SDS011;52272;-29.642;-50.764;2022-10-24T02:09:07;4.28;;;1.60;;
65599;SDS011;52272;-29.642;-50.764;2022-10-24T02:11:43;2.78;;;1.20;;
65599;SDS011;52272;-29.642;-50.764;2022-10-24T02:14:17;1.75;;;1.33;;
65599;SDS011;52272;-29.642;-50.764;2022-10-24T02:17:02;3.85;;;2.08;;
65599;SDS011;52272;-29.642;-50.764;2022-10-24T02:19:32;2.72;;;1.80;;
65599;SDS011;52272;-29.642;-50.764;2022-10-24T02:25:03;1.48;;;1.38;;
65599;SDS011;52272;-29.642;-50.764;2022-10-24T02:27:40;2.15;;;1.40;;
65599;SDS011;52272;-29.642;-50.764;2022-10-24T02:30:16;2.67;;;1.40;;
65599;SDS011;52272;-29.642;-50.764;2022-10-24T02:32:51;2.45;;;1.63;;
65599;SDS011;52272;-29.642;-50.764;2022-10-24T02:35:25;3.38;;;1.50;;
65599;SDS011;52272;-29.642;-50.764;2022-10-24T02:38:09;2.67;;;1.63;;
65599;SDS011;52272;-29.642;-50.764;2022-10-24T02:41:01;3.15;;;1.40;;
65599;SDS011;52272;-29.642;-50.764;2022-10-24T02:43:37;2.20;;;1.20;;
65599;SDS011;52272;-29.642;-50.764;2022-10-24T02:46:09;4.15;;;1.77;;
65599;SDS011;52272;-29.642;-50.764;2022-10-24T02:48:43;2.97;;;1.30;;
65599;SDS011;52272;-29.642;-50.764;2022-10-24T02:51:17;2.45;;;1.55;;
65599;SDS011;52272;-29.642;-50.764;2022-10-24T02:53:50;2.20;;;1.98;;
65599;SDS011;52272;-29.642;-50.764;2022-10-24T02:56:21;4.25;;;1.80;;
65599;SDS011;52272;-29.642;-50.764;2022-10-24T02:58:51;3.00;;;1.77;;
65599;SDS011;52272;-29.642;-50.764;2022-10-24T03:01:21;4.15;;;2.10;;
65599;SDS011;52272;-29.642;-50.764;2022-10-24T03:03:52;2.85;;;2.25;;
65599;SDS011;52272;-29.642;-50.764;2022-10-24T03:06:23;3.72;;;2.20;;
65599;SDS011;52272;-29.642;-50.764;2022-10-24T03:08:54;4.38;;;2.25;;
65599;SDS011;52272;-29.642;-50.764;2022-10-24T03:11:24;3.42;;;2.17;;
65599;SDS011;52272;-29.642;-50.764;2022-10-24T03:13:55;4.00;;;1.80;;
65599;SDS011;52272;-29.642;-50.764;2022-10-24T03:16:25;6.15;;;1.40;;
65599;SDS011;52272;-29.642;-50.764;2022-10-24T03:18:57;3.25;;;1.55;;
65599;SDS011;52272;-29.642;-50.764;2022-10-24T03:21:28;5.03;;;2.30;;
65599;SDS011;52272;-29.642;-50.764;2022-10-24T03:26:28;7.18;;;2.40;;
65599;SDS011;52272;-29.642;-50.764;2022-10-24T03:28:58;4.28;;;2.47;;
65599;SDS011;52272;-29.642;-50.764;2022-10-24T03:31:29;4.60;;;2.50;;
65599;SDS011;52272;-29.642;-50.764;2022-10-24T03:34:00;3.83;;;2.17;;
65599;SDS011;52272;-29.642;-50.764;2022-10-24T03:36:30;4.90;;;2.45;;
65599;SDS011;52272;-29.642;-50.764;2022-10-24T03:39:05;8.40;;;3.00;;
65599;SDS011;52272;-29.642;-50.764;2022-10-24T03:41:36;3.03;;;2.65;;
65599;SDS011;52272;-29.642;-50.764;2022-10-24T03:44:06;5.50;;;2.28;;
65599;SDS011;52272;-29.642;-50.764;2022-10-24T03:46:37;4.45;;;2.67;;
65599;SDS011;52272;-29.642;-50.764;2022-10-24T03:49:07;5.28;;;2.80;;
65599;SDS011;52272;-29.642;-50.764;2022-10-24T03:51:37;5.22;;;2.60;;
65599;SDS011;52272;-29.642;-50.764;2022-10-24T03:54:07;9.50;;;3.55;;
65599;SDS011;52272;-29.642;-50.764;2022-10-24T03:56:39;3.67;;;2.40;;
65599;SDS011;52272;-29.642;-50.764;2022-10-24T03:59:10;7.53;;;3.03;;
65599;SDS011;52272;-29.642;-50.764;2022-10-24T04:01:40;3.55;;;2.53;;
65599;SDS011;52272;-29.642;-50.764;2022-10-24T04:04:11;6.47;;;3.17;;
65599;SDS011;52272;-29.642;-50.764;2022-10-24T04:06:41;34.53;;;4.10;;
65599;SDS011;52272;-29.642;-50.764;2022-10-24T04:09:12;80.50;;;5.70;;
65599;SDS011;52272;-29.642;-50.764;2022-10-24T04:11:42;118.28;;;6.63;;
65599;SDS011;52272;-29.642;-50.764;2022-10-24T04:14:13;3.88;;;3.03;;
65599;SDS011;52272;-29.642;-50.764;2022-10-24T04:16:43;6.18;;;3.15;;
65599;SDS011;52272;-29.642;-50.764;2022-10-24T04:19:15;4.93;;;2.50;;
65599;SDS011;52272;-29.642;-50.764;2022-10-24T04:21:47;8.45;;;3.00;;
65599;SDS011;52272;-29.642;-50.764;2022-10-24T04:24:18;3.55;;;2.78;;
65599;SDS011;52272;-29.642;-50.764;2022-10-24T04:26:48;7.30;;;2.88;;
65599;SDS011;52272;-29.642;-50.764;2022-10-24T04:29:19;3.65;;;2.70;;
65599;SDS011;52272;-29.642;-50.764;2022-10-24T04:31:49;6.88;;;3.05;;
65599;SDS011;52272;-29.642;-50.764;2022-10-24T04:36:49;7.07;;;3.05;;
65599;SDS011;52272;-29.642;-50.764;2022-10-24T04:39:19;6.38;;;3.72;;
65599;SDS011;52272;-29.642;-50.764;2022-10-24T04:41:49;8.82;;;3.70;;
65599;SDS011;52272;-29.642;-50.764;2022-10-24T04:44:20;7.15;;;3.17;;
65599;SDS011;52272;-29.642;-50.764;2022-10-24T04:46:53;5.80;;;3.53;;
65599;SDS011;52272;-29.642;-50.764;2022-10-24T04:51:53;15.25;;;5.32;;
65599;SDS011;52272;-29.642;-50.764;2022-10-24T04:54:23;6.60;;;3.78;;
65599;SDS011;52272;-29.642;-50.764;2022-10-24T04:56:54;9.98;;;3.85;;
65599;SDS011;52272;-29.642;-50.764;2022-10-24T04:59:24;35.95;;;4.43;;
65599;SDS011;52272;-29.642;-50.764;2022-10-24T05:01:54;5.10;;;3.00;;
65599;SDS011;52272;-29.642;-50.764;2022-10-24T05:06:54;6.72;;;2.92;;
65599;SDS011;52272;-29.642;-50.764;2022-10-24T05:09:24;3.72;;;2.90;;
65599;SDS011;52272;-29.642;-50.764;2022-10-24T05:14:25;10.93;;;4.45;;
65599;SDS011;52272;-29.642;-50.764;2022-10-24T05:16:55;7.72;;;4.20;;
65599;SDS011;52272;-29.642;-50.764;2022-10-24T05:19:26;10.10;;;4.90;;
65599;SDS011;52272;-29.642;-50.764;2022-10-24T05:24:26;10.40;;;4.82;;
65599;SDS011;52272;-29.642;-50.764;2022-10-24T05:26:58;7.75;;;4.47;;
65599;SDS011;52272;-29.642;-50.764;2022-10-24T05:29:28;8.00;;;4.70;;
65599;SDS011;52272;-29.642;-50.764;2022-10-24T05:34:28;10.80;;;4.50;;
65599;SDS011;52272;-29.642;-50.764;2022-10-24T05:36:58;9.52;;;5.45;;
65599;SDS011;52272;-29.642;-50.764;2022-10-24T05:39:29;10.70;;;5.53;;
65599;SDS011;52272;-29.642;-50.764;2022-10-24T05:41:59;7.43;;;4.32;;
65599;SDS011;52272;-29.642;-50.764;2022-10-24T05:44:29;7.85;;;3.88;;
65599;SDS011;52272;-29.642;-50.764;2022-10-24T05:46:59;9.88;;;3.78;;
65599;SDS011;52272;-29.642;-50.764;2022-10-24T05:51:59;8.27;;;4.25;;
65599;SDS011;52272;-29.642;-50.764;2022-10-24T05:54:30;9.02;;;4.32;;
65599;SDS011;52272;-29.642;-50.764;2022-10-24T05:57:21;8.75;;;5.15;;
65599;SDS011;52272;-29.642;-50.764;2022-10-24T05:59:51;6.72;;;4.18;;
65599;SDS011;52272;-29.642;-50.764;2022-10-24T06:02:21;8.18;;;4.75;;
65599;SDS011;52272;-29.642;-50.764;2022-10-24T06:07:23;8.40;;;4.05;;
65599;SDS011;52272;-29.642;-50.764;2022-10-24T06:09:53;8.82;;;4.88;;
65599;SDS011;52272;-29.642;-50.764;2022-10-24T06:12:27;12.32;;;6.20;;
65599;SDS011;52272;-29.642;-50.764;2022-10-24T06:14:58;11.32;;;5.50;;
65599;SDS011;52272;-29.642;-50.764;2022-10-24T06:17:28;12.90;;;6.20;;
65599;SDS011;52272;-29.642;-50.764;2022-10-24T06:19:59;9.15;;;5.35;;
65599;SDS011;52272;-29.642;-50.764;2022-10-24T06:22:29;7.50;;;4.57;;
65599;SDS011;52272;-29.642;-50.764;2022-10-24T06:27:29;9.85;;;5.07;;
65599;SDS011;52272;-29.642;-50.764;2022-10-24T06:29:59;10.10;;;5.72;;
65599;SDS011;52272;-29.642;-50.764;2022-10-24T06:32:30;9.48;;;5.97;;
65599;SDS011;52272;-29.642;-50.764;2022-10-24T06:35:00;10.68;;;5.65;;
65599;SDS011;52272;-29.642;-50.764;2022-10-24T06:37:31;12.30;;;5.70;;
65599;SDS011;52272;-29.642;-50.764;2022-10-24T06:42:31;6.78;;;3.33;;
65599;SDS011;52272;-29.642;-50.764;2022-10-24T06:47:31;6.55;;;3.60;;
65599;SDS011;52272;-29.642;-50.764;2022-10-24T06:52:32;8.00;;;3.80;;
65599;SDS011;52272;-29.642;-50.764;2022-10-24T06:57:32;6.68;;;3.35;;
65599;SDS011;52272;-29.642;-50.764;2022-10-24T07:00:03;6.32;;;3.05;;
65599;SDS011;52272;-29.642;-50.764;2022-10-24T07:02:34;8.18;;;3.75;;
65599;SDS011;52272;-29.642;-50.764;2022-10-24T07:05:05;6.18;;;2.90;;
65599;SDS011;52272;-29.642;-50.764;2022-10-24T07:07:41;6.07;;;2.78;;
65599;SDS011;52272;-29.642;-50.764;2022-10-24T07:10:12;16.23;;;3.10;;
65599;SDS011;52272;-29.642;-50.764;2022-10-24T07:12:43;3.60;;;2.60;;
65599;SDS011;52272;-29.642;-50.764;2022-10-24T07:15:14;8.27;;;2.55;;
65599;SDS011;52272;-29.642;-50.764;2022-10-24T07:17:46;5.80;;;3.78;;
65599;SDS011;52272;-29.642;-50.764;2022-10-24T07:20:16;9.40;;;4.80;;
65599;SDS011;52272;-29.642;-50.764;2022-10-24T07:22:47;7.03;;;4.65;;
65599;SDS011;52272;-29.642;-50.764;2022-10-24T07:25:17;9.82;;;5.40;;
65599;SDS011;52272;-29.642;-50.764;2022-10-24T07:30:20;8.45;;;4.85;;
65599;SDS011;52272;-29.642;-50.764;2022-10-24T07:32:50;8.63;;;4.35;;
65599;SDS011;52272;-29.642;-50.764;2022-10-24T07:37:51;6.45;;;3.95;;
65599;SDS011;52272;-29.642;-50.764;2022-10-24T07:40:21;11.43;;;4.82;;
65599;SDS011;52272;-29.642;-50.764;2022-10-24T07:42:51;5.18;;;3.78;;
65599;SDS011;52272;-29.642;-50.764;2022-10-24T07:45:21;7.18;;;3.80;;
65599;SDS011;52272;-29.642;-50.764;2022-10-24T07:47:52;10.20;;;6.78;;
65599;SDS011;52272;-29.642;-50.764;2022-10-24T07:50:22;34.08;;;20.00;;
65599;SDS011;52272;-29.642;-50.764;2022-10-24T07:52:52;23.95;;;15.77;;
65599;SDS011;52272;-29.642;-50.764;2022-10-24T07:55:22;20.65;;;13.18;;
65599;SDS011;52272;-29.642;-50.764;2022-10-24T07:57:53;13.45;;;8.77;;
65599;SDS011;52272;-29.642;-50.764;2022-10-24T08:00:23;14.40;;;8.75;;
65599;SDS011;52272;-29.642;-50.764;2022-10-24T08:02:53;13.63;;;5.38;;
65599;SDS011;52272;-29.642;-50.764;2022-10-24T08:05:24;9.57;;;4.82;;
65599;SDS011;52272;-29.642;-50.764;2022-10-24T08:10:44;119.00;;;8.95;;
65599;SDS011;52272;-29.642;-50.764;2022-10-24T08:13:17;173.82;;;9.75;;
65599;SDS011;52272;-29.642;-50.764;2022-10-24T08:15:47;161.82;;;9.60;;
65599;SDS011;52272;-29.642;-50.764;2022-10-24T08:18:18;175.23;;;10.27;;
65599;SDS011;52272;-29.642;-50.764;2022-10-24T08:20:58;92.40;;;7.55;;
65599;SDS011;52272;-29.642;-50.764;2022-10-24T08:23:31;165.70;;;9.32;;
65599;SDS011;52272;-29.642;-50.764;2022-10-24T08:26:03;55.97;;;4.80;;
65599;SDS011;52272;-29.642;-50.764;2022-10-24T08:28:37;27.35;;;3.63;;
65599;SDS011;52272;-29.642;-50.764;2022-10-24T08:31:10;2.45;;;2.22;;
65599;SDS011;52272;-29.642;-50.764;2022-10-24T08:33:42;17.67;;;2.88;;
65599;SDS011;52272;-29.642;-50.764;2022-10-24T08:36:19;2.80;;;2.38;;
65599;SDS011;52272;-29.642;-50.764;2022-10-24T08:38:55;3.03;;;2.33;;
65599;SDS011;52272;-29.642;-50.764;2022-10-24T08:43:59;2.85;;;2.58;;
65599;SDS011;52272;-29.642;-50.764;2022-10-24T08:49:49;4.45;;;3.40;;
65599;SDS011;52272;-29.642;-50.764;2022-10-24T08:55:15;35.42;;;5.10;;
65599;SDS011;52272;-29.642;-50.764;2022-10-24T08:58:32;68.38;;;6.28;;
65599;SDS011;52272;-29.642;-50.764;2022-10-24T09:01:05;14.80;;;4.90;;
65599;SDS011;52272;-29.642;-50.764;2022-10-24T09:03:45;18.55;;;5.28;;
65599;SDS011;52272;-29.642;-50.764;2022-10-24T09:06:25;28.10;;;5.03;;
65599;SDS011;52272;-29.642;-50.764;2022-10-24T09:09:02;3.97;;;3.20;;
65599;SDS011;52272;-29.642;-50.764;2022-10-24T09:11:52;8.32;;;3.65;;
65599;SDS011;52272;-29.642;-50.764;2022-10-24T09:14:26;6.28;;;3.75;;
65599;SDS011;52272;-29.642;-50.764;2022-10-24T09:17:08;4.35;;;3.50;;
65599;SDS011;52272;-29.642;-50.764;2022-10-24T09:22:35;42.28;;;6.72;;
65599;SDS011;52272;-29.642;-50.764;2022-10-24T09:25:11;7.60;;;3.90;;
65599;SDS011;52272;-29.642;-50.764;2022-10-24T09:30:22;12.40;;;5.03;;
65599;SDS011;52272;-29.642;-50.764;2022-10-24T09:33:06;8.35;;;4.93;;
65599;SDS011;52272;-29.642;-50.764;2022-10-24T09:35:46;9.82;;;5.75;;
65599;SDS011;52272;-29.642;-50.764;2022-10-24T09:40:54;16.83;;;8.15;;
65599;SDS011;52272;-29.642;-50.764;2022-10-24T09:51:18;11.90;;;6.38;;
65599;SDS011;52272;-29.642;-50.764;2022-10-24T09:54:06;9.82;;;5.82;;
65599;SDS011;52272;-29.642;-50.764;2022-10-24T09:56:53;6.10;;;4.82;;
65599;SDS011;52272;-29.642;-50.764;2022-10-24T10:02:16;7.97;;;4.93;;
65599;SDS011;52272;-29.642;-50.764;2022-10-24T10:15:59;12.75;;;8.27;;
65599;SDS011;52272;-29.642;-50.764;2022-10-24T10:21:17;11.70;;;6.50;;
65599;SDS011;52272;-29.642;-50.764;2022-10-24T10:23:51;11.35;;;8.48;;
65599;SDS011;52272;-29.642;-50.764;2022-10-24T10:28:59;6.55;;;5.13;;
65599;SDS011;52272;-29.642;-50.764;2022-10-24T10:31:48;13.18;;;7.40;;
65599;SDS011;52272;-29.642;-50.764;2022-10-24T10:35:00;12.15;;;6.68;;
65599;SDS011;52272;-29.642;-50.764;2022-10-24T10:37:43;7.85;;;5.75;;
65599;SDS011;52272;-29.642;-50.764;2022-10-24T10:40:24;14.07;;;5.13;;
65599;SDS011;52272;-29.642;-50.764;2022-10-24T10:51:46;7.75;;;4.90;;
65599;SDS011;52272;-29.642;-50.764;2022-10-24T10:57:03;4.43;;;3.28;;
65599;SDS011;52272;-29.642;-50.764;2022-10-24T11:05:47;9.10;;;3.78;;
65599;SDS011;52272;-29.642;-50.764;2022-10-24T11:11:15;5.72;;;3.67;;
65599;SDS011;52272;-29.642;-50.764;2022-10-24T11:13:56;7.63;;;3.42;;
65599;SDS011;52272;-29.642;-50.764;2022-10-24T11:16:45;6.05;;;2.75;;
65599;SDS011;52272;-29.642;-50.764;2022-10-24T11:19:35;6.60;;;2.95;;
65599;SDS011;52272;-29.642;-50.764;2022-10-24T11:22:47;3.75;;;2.28;;
65599;SDS011;52272;-29.642;-50.764;2022-10-24T11:25:27;7.22;;;2.55;;
65599;SDS011;52272;-29.642;-50.764;2022-10-24T11:30:43;3.30;;;2.25;;
65599;SDS011;52272;-29.642;-50.764;2022-10-24T11:33:21;5.00;;;2.10;;
65599;SDS011;52272;-29.642;-50.764;2022-10-24T11:36:00;6.82;;;2.20;;
65599;SDS011;52272;-29.642;-50.764;2022-10-24T11:38:35;4.63;;;2.15;;
65599;SDS011;52272;-29.642;-50.764;2022-10-24T11:44:33;7.85;;;2.00;;
65599;SDS011;52272;-29.642;-50.764;2022-10-24T11:47:26;2.40;;;1.88;;
65599;SDS011;52272;-29.642;-50.764;2022-10-24T11:53:02;3.67;;;1.80;;
65599;SDS011;52272;-29.642;-50.764;2022-10-24T11:55:40;5.53;;;1.60;;
65599;SDS011;52272;-29.642;-50.764;2022-10-24T11:58:17;3.85;;;1.80;;
65599;SDS011;52272;-29.642;-50.764;2022-10-24T12:01:04;4.00;;;1.45;;
65599;SDS011;52272;-29.642;-50.764;2022-10-24T12:04:04;8.20;;;1.50;;
65599;SDS011;52272;-29.642;-50.764;2022-10-24T12:12:48;2.65;;;0.77;;
65599;SDS011;52272;-29.642;-50.764;2022-10-24T12:18:38;1.10;;;0.88;;
65599;SDS011;52272;-29.642;-50.764;2022-10-24T12:21:10;3.80;;;1.15;;
65599;SDS011;52272;-29.642;-50.764;2022-10-24T12:23:55;3.85;;;1.05;;
65599;SDS011;52272;-29.642;-50.764;2022-10-24T12:26:31;2.20;;;1.10;;
65599;SDS011;52272;-29.642;-50.764;2022-10-24T12:29:03;2.38;;;1.08;;
65599;SDS011;52272;-29.642;-50.764;2022-10-24T12:31:36;2.20;;;0.93;;
65599;SDS011;52272;-29.642;-50.764;2022-10-24T12:39:37;1.35;;;0.73;;
65599;SDS011;52272;-29.642;-50.764;2022-10-24T12:44:49;0.95;;;0.70;;
65599;SDS011;52272;-29.642;-50.764;2022-10-24T12:47:30;2.67;;;1.13;;
65599;SDS011;52272;-29.642;-50.764;2022-10-24T12:53:00;1.80;;;1.13;;
65599;SDS011;52272;-29.642;-50.764;2022-10-24T13:01:02;1.77;;;0.70;;
65599;SDS011;52272;-29.642;-50.764;2022-10-24T13:06:32;1.30;;;0.73;;
65599;SDS011;52272;-29.642;-50.764;2022-10-24T13:21:26;1.92;;;0.95;;
65599;SDS011;52272;-29.642;-50.764;2022-10-24T13:24:10;2.47;;;0.90;;
65599;SDS011;52272;-29.642;-50.764;2022-10-24T13:31:54;2.10;;;0.45;;
65599;SDS011;52272;-29.642;-50.764;2022-10-24T13:42:52;1.60;;;0.63;;
65599;SDS011;52272;-29.642;-50.764;2022-10-24T13:45:43;1.77;;;0.57;;
65599;SDS011;52272;-29.642;-50.764;2022-10-24T13:48:30;2.53;;;0.90;;
65599;SDS011;52272;-29.642;-50.764;2022-10-24T13:53:43;3.95;;;0.82;;
65599;SDS011;52272;-29.642;-50.764;2022-10-24T13:56:21;1.83;;;0.55;;
65599;SDS011;52272;-29.642;-50.764;2022-10-24T13:58:52;1.90;;;0.65;;
65599;SDS011;52272;-29.642;-50.764;2022-10-24T14:01:24;1.48;;;0.88;;
65599;SDS011;52272;-29.642;-50.764;2022-10-24T14:03:57;2.25;;;0.70;;
65599;SDS011;52272;-29.642;-50.764;2022-10-24T14:06:29;1.50;;;0.90;;
65599;SDS011;52272;-29.642;-50.764;2022-10-24T14:09:03;2.72;;;0.70;;
65599;SDS011;52272;-29.642;-50.764;2022-10-24T14:11:39;2.10;;;1.02;;
65599;SDS011;52272;-29.642;-50.764;2022-10-24T14:14:29;2.00;;;0.98;;
65599;SDS011;52272;-29.642;-50.764;2022-10-24T14:19:56;1.65;;;0.43;;
65599;SDS011;52272;-29.642;-50.764;2022-10-24T14:22:39;2.55;;;0.73;;
65599;SDS011;52272;-29.642;-50.764;2022-10-24T14:28:37;1.05;;;0.57;;
65599;SDS011;52272;-29.642;-50.764;2022-10-24T14:31:05;1.50;;;0.80;;
65599;SDS011;52272;-29.642;-50.764;2022-10-24T14:34:41;2.50;;;0.85;;
65599;SDS011;52272;-29.642;-50.764;2022-10-24T14:38:41;2.25;;;0.50;;
65599;SDS011;52272;-29.642;-50.764;2022-10-24T14:42:42;1.80;;;0.80;;
65599;SDS011;52272;-29.642;-50.764;2022-10-24T14:46:39;3.60;;;0.90;;
65599;SDS011;52272;-29.642;-50.764;2022-10-24T14:54:25;1.40;;;0.52;;
65599;SDS011;52272;-29.642;-50.764;2022-10-24T14:58:17;3.42;;;0.77;;
65599;SDS011;52272;-29.642;-50.764;2022-10-24T15:00:53;0.85;;;0.57;;
65599;SDS011;52272;-29.642;-50.764;2022-10-24T15:03:26;2.25;;;0.60;;
65599;SDS011;52272;-29.642;-50.764;2022-10-24T15:06:06;2.90;;;0.63;;
65599;SDS011;52272;-29.642;-50.764;2022-10-24T15:08:40;0.77;;;0.57;;
65599;SDS011;52272;-29.642;-50.764;2022-10-24T15:13:50;0.80;;;0.57;;
65599;SDS011;52272;-29.642;-50.764;2022-10-24T15:16:34;2.33;;;0.75;;
65599;SDS011;52272;-29.642;-50.764;2022-10-24T15:19:12;1.10;;;0.50;;
65599;SDS011;52272;-29.642;-50.764;2022-10-24T15:21:46;1.92;;;0.57;;
65599;SDS011;52272;-29.642;-50.764;2022-10-24T15:24:23;1.00;;;0.60;;
65599;SDS011;52272;-29.642;-50.764;2022-10-24T15:27:08;1.45;;;0.70;;
65599;SDS011;52272;-29.642;-50.764;2022-10-24T15:29:40;3.25;;;0.80;;
65599;SDS011;52272;-29.642;-50.764;2022-10-24T15:32:10;2.53;;;0.57;;
65599;SDS011;52272;-29.642;-50.764;2022-10-24T15:34:40;2.70;;;0.90;;
65599;SDS011;52272;-29.642;-50.764;2022-10-24T15:37:16;1.23;;;0.70;;
65599;SDS011;52272;-29.642;-50.764;2022-10-24T15:39:49;2.20;;;0.70;;
65599;SDS011;52272;-29.642;-50.764;2022-10-24T15:42:21;0.63;;;0.47;;
65599;SDS011;52272;-29.642;-50.764;2022-10-24T15:44:51;0.52;;;0.52;;
65599;SDS011;52272;-29.642;-50.764;2022-10-24T15:47:22;2.05;;;0.60;;
65599;SDS011;52272;-29.642;-50.764;2022-10-24T15:49:52;2.33;;;0.60;;
65599;SDS011;52272;-29.642;-50.764;2022-10-24T15:52:22;1.75;;;0.40;;
65599;SDS011;52272;-29.642;-50.764;2022-10-24T15:54:52;2.65;;;0.50;;
65599;SDS011;52272;-29.642;-50.764;2022-10-24T15:57:22;2.13;;;0.85;;
65599;SDS011;52272;-29.642;-50.764;2022-10-24T15:59:53;2.75;;;0.73;;
65599;SDS011;52272;-29.642;-50.764;2022-10-24T16:02:25;1.70;;;0.65;;
65599;SDS011;52272;-29.642;-50.764;2022-10-24T16:04:56;2.13;;;0.88;;
65599;SDS011;52272;-29.642;-50.764;2022-10-24T16:07:29;2.70;;;0.75;;
65599;SDS011;52272;-29.642;-50.764;2022-10-24T16:09:59;2.42;;;0.88;;
65599;SDS011;52272;-29.642;-50.764;2022-10-24T16:12:29;0.77;;;0.77;;
65599;SDS011;52272;-29.642;-50.764;2022-10-24T16:14:59;4.63;;;0.60;;
65599;SDS011;52272;-29.642;-50.764;2022-10-24T16:17:30;1.13;;;0.60;;
65599;SDS011;52272;-29.642;-50.764;2022-10-24T16:20:01;1.90;;;0.50;;
65599;SDS011;52272;-29.642;-50.764;2022-10-24T16:22:31;0.85;;;0.50;;
65599;SDS011;52272;-29.642;-50.764;2022-10-24T16:25:01;1.95;;;0.70;;
65599;SDS011;52272;-29.642;-50.764;2022-10-24T16:27:31;2.78;;;0.47;;
65599;SDS011;52272;-29.642;-50.764;2022-10-24T16:30:01;1.00;;;0.65;;
65599;SDS011;52272;-29.642;-50.764;2022-10-24T16:32:32;1.88;;;0.60;;
65599;SDS011;52272;-29.642;-50.764;2022-10-24T16:35:02;2.20;;;0.50;;
65599;SDS011;52272;-29.642;-50.764;2022-10-24T16:37:32;2.72;;;0.57;;
65599;SDS011;52272;-29.642;-50.764;2022-10-24T16:40:03;1.70;;;0.60;;
65599;SDS011;52272;-29.642;-50.764;2022-10-24T16:42:33;3.15;;;0.77;;
65599;SDS011;52272;-29.642;-50.764;2022-10-24T16:45:04;1.63;;;0.60;;
65599;SDS011;52272;-29.642;-50.764;2022-10-24T16:47:35;1.63;;;0.50;;
65599;SDS011;52272;-29.642;-50.764;2022-10-24T16:50:06;3.58;;;0.80;;
65599;SDS011;52272;-29.642;-50.764;2022-10-24T16:55:12;2.80;;;0.50;;
65599;SDS011;52272;-29.642;-50.764;2022-10-24T16:57:43;2.00;;;0.57;;
65599;SDS011;52272;-29.642;-50.764;2022-10-24T17:00:14;2.70;;;0.65;;
65599;SDS011;52272;-29.642;-50.764;2022-10-24T17:02:46;0.77;;;0.38;;
65599;SDS011;52272;-29.642;-50.764;2022-10-24T17:05:21;2.42;;;0.43;;
65599;SDS011;52272;-29.642;-50.764;2022-10-24T17:07:53;1.58;;;0.65;;
65599;SDS011;52272;-29.642;-50.764;2022-10-24T17:10:24;1.42;;;0.40;;
65599;SDS011;52272;-29.642;-50.764;2022-10-24T17:12:54;1.73;;;0.47;;
65599;SDS011;52272;-29.642;-50.764;2022-10-24T17:15:24;0.90;;;0.50;;
65599;SDS011;52272;-29.642;-50.764;2022-10-24T17:17:55;3.70;;;0.63;;
65599;SDS011;52272;-29.642;-50.764;2022-10-24T17:20:25;1.15;;;0.40;;
65599;SDS011;52272;-29.642;-50.764;2022-10-24T17:22:55;3.00;;;0.80;;
65599;SDS011;52272;-29.642;-50.764;2022-10-24T17:25:31;0.80;;;0.20;;
65599;SDS011;52272;-29.642;-50.764;2022-10-24T17:28:01;2.50;;;0.60;;
65599;SDS011;52272;-29.642;-50.764;2022-10-24T17:30:32;1.95;;;0.70;;
65599;SDS011;52272;-29.642;-50.764;2022-10-24T17:33:02;1.20;;;0.52;;
65599;SDS011;52272;-29.642;-50.764;2022-10-24T17:35:33;4.13;;;0.45;;
65599;SDS011;52272;-29.642;-50.764;2022-10-24T17:38:17;2.63;;;0.80;;
65599;SDS011;52272;-29.642;-50.764;2022-10-24T17:41:20;1.60;;;0.70;;
65599;SDS011;52272;-29.642;-50.764;2022-10-24T17:43:53;2.42;;;0.82;;
65599;SDS011;52272;-29.642;-50.764;2022-10-24T17:46:24;3.88;;;1.00;;
65599;SDS011;52272;-29.642;-50.764;2022-10-24T17:48:55;4.63;;;0.80;;
65599;SDS011;52272;-29.642;-50.764;2022-10-24T17:51:25;5.88;;;0.95;;
65599;SDS011;52272;-29.642;-50.764;2022-10-24T17:53:56;2.38;;;0.80;;
65599;SDS011;52272;-29.642;-50.764;2022-10-24T17:56:26;3.45;;;0.77;;
65599;SDS011;52272;-29.642;-50.764;2022-10-24T17:58:56;2.88;;;0.57;;
65599;SDS011;52272;-29.642;-50.764;2022-10-24T18:01:27;5.40;;;0.75;;
65599;SDS011;52272;-29.642;-50.764;2022-10-24T18:04:01;1.88;;;0.80;;
65599;SDS011;52272;-29.642;-50.764;2022-10-24T18:06:33;1.83;;;0.50;;
65599;SDS011;52272;-29.642;-50.764;2022-10-24T18:09:10;2.35;;;0.70;;
65599;SDS011;52272;-29.642;-50.764;2022-10-24T18:11:42;1.80;;;0.47;;
65599;SDS011;52272;-29.642;-50.764;2022-10-24T18:14:12;1.45;;;0.55;;
65599;SDS011;52272;-29.642;-50.764;2022-10-24T18:16:42;2.50;;;0.70;;
65599;SDS011;52272;-29.642;-50.764;2022-10-24T18:19:13;1.92;;;0.55;;
65599;SDS011;52272;-29.642;-50.764;2022-10-24T18:21:44;1.60;;;0.50;;
65599;SDS011;52272;-29.642;-50.764;2022-10-24T18:24:15;1.25;;;0.38;;
65599;SDS011;52272;-29.642;-50.764;2022-10-24T18:26:45;1.35;;;0.50;;